Time;durP1;ratioP1;P1;durP2;ratioP2;P2;SDS_P1;SDS_P2;PMS_P1;PMS_P2;Temp;Humidity;BMP_temperature;BMP_pressure;BME280_temperature;BME280_humidity;BME280_pressure;Samples;Min_cycle;Max_cycle;Signal;HPM_P1;HPM_P2
2022/07/07 00:01:55;;;;;;;6.18;4.25;;;;;;;20.45;nan;-24385.81;4947960;28;20178;-61
2022/07/07 00:04:20;;;;;;;8.38;4.35;;;;;;;20.35;nan;-24382.91;4945851;28;20592;-58
2022/07/07 00:06:46;;;;;;;6.40;4.47;;;;;;;20.54;nan;-24388.31;4947138;28;20256;-59
2022/07/07 00:09:11;;;;;;;7.20;4.68;;;;;;;20.39;nan;-24384.03;4947825;28;20200;-59
2022/07/07 00:11:37;;;;;;;6.05;4.63;;;;;;;20.68;nan;-24392.19;4946432;28;20181;-58
2022/07/07 00:14:07;;;;;;;7.05;4.53;;;;;;;20.72;nan;-24393.19;4946795;28;20185;-59
2022/07/07 00:16:32;;;;;;;5.68;4.20;;;;;;;20.63;nan;-24390.69;4941932;28;20946;-59
2022/07/07 00:18:58;;;;;;;6.57;4.60;;;;;;;20.40;nan;-24384.44;4948981;28;20336;-59
2022/07/07 00:21:23;;;;;;;7.07;4.05;;;;;;;20.80;nan;-24395.25;4949159;28;20181;-58
2022/07/07 00:23:49;;;;;;;5.93;4.25;;;;;;;20.49;nan;-24386.94;4946025;28;20272;-61
2022/07/07 00:26:14;;;;;;;5.53;4.10;;;;;;;20.89;nan;-24397.91;4949100;28;20200;-58
2022/07/07 00:28:40;;;;;;;6.47;4.43;;;;;;;21.03;nan;-24401.63;4951200;28;20846;-59
2022/07/07 00:31:05;;;;;;;6.90;4.20;;;;;;;20.81;nan;-24395.66;4952837;28;20661;-60
2022/07/07 00:33:31;;;;;;;6.30;3.97;;;;;;;21.07;nan;-24402.88;4950534;28;20213;-59
2022/07/07 00:35:56;;;;;;;9.75;4.05;;;;;;;20.95;nan;-24399.56;4950047;28;20268;-61
2022/07/07 00:38:22;;;;;;;5.95;4.10;;;;;;;21.32;nan;-24409.69;4950193;28;20669;-60
2022/07/07 00:40:52;;;;;;;10.40;4.03;;;;;;;21.31;nan;-24409.41;4953314;28;20716;-59
2022/07/07 00:43:17;;;;;;;5.20;3.95;;;;;;;21.12;nan;-24404.13;4943822;28;20213;-58
2022/07/07 00:45:50;;;;;;;6.05;4.15;;;;;;;21.19;nan;-24406.06;4949300;28;20597;-60
2022/07/07 00:48:18;;;;;;;6.47;4.15;;;;;;;20.69;nan;-24392.34;4949668;28;20212;-61
2022/07/07 00:50:45;;;;;;;5.80;3.97;;;;;;;20.81;nan;-24395.66;4947012;28;20194;-59
2022/07/07 00:53:10;;;;;;;5.53;3.90;;;;;;;20.87;nan;-24397.19;4944481;28;20182;-60
2022/07/07 00:55:36;;;;;;;6.18;4.20;;;;;;;20.92;nan;-24398.59;4948244;28;20193;-60
2022/07/07 00:58:02;;;;;;;5.75;4.03;;;;;;;21.03;nan;-24401.78;4949718;28;20193;-59
2022/07/07 01:00:27;;;;;;;6.43;3.97;;;;;;;20.89;nan;-24397.75;4948104;28;20214;-60
2022/07/07 01:02:53;;;;;;;6.45;3.72;;;;;;;20.92;nan;-24398.72;4946088;28;20653;-59
2022/07/07 01:05:18;;;;;;;5.82;4.03;;;;;;;21.15;nan;-24404.97;4945973;28;20198;-60
2022/07/07 01:07:45;;;;;;;6.07;3.92;;;;;;;21.00;nan;-24400.81;4950103;28;20445;-59
2022/07/07 01:10:11;;;;;;;6.43;4.03;;;;;;;20.91;nan;-24398.31;4942683;28;20207;-61
2022/07/07 01:12:38;;;;;;;5.20;3.78;;;;;;;20.70;nan;-24392.63;4946385;28;20554;-58
2022/07/07 01:15:06;;;;;;;5.90;4.30;;;;;;;20.60;nan;-24389.84;4949673;28;20244;-59
2022/07/07 01:17:31;;;;;;;7.05;4.18;;;;;;;20.56;nan;-24388.75;4947783;28;20652;-61
2022/07/07 01:19:58;;;;;;;8.32;4.35;;;;;;;20.53;nan;-24387.91;4948156;28;20233;-59
2022/07/07 01:22:28;;;;;;;6.22;4.20;;;;;;;20.57;nan;-24389.00;4946443;28;20704;-59
2022/07/07 01:24:53;;;;;;;5.57;3.88;;;;;;;20.65;nan;-24391.22;4951592;28;20251;-59
2022/07/07 01:27:20;;;;;;;5.45;4.00;;;;;;;20.64;nan;-24390.97;4947983;28;20617;-61
2022/07/07 01:29:50;;;;;;;5.32;3.65;;;;;;;21.10;nan;-24403.56;4948671;28;20166;-60
2022/07/07 01:32:15;;;;;;;5.47;4.00;;;;;;;20.75;nan;-24393.88;4947420;28;20181;-60
2022/07/07 01:34:43;;;;;;;5.47;3.70;;;;;;;20.81;nan;-24395.66;4946966;28;20618;-58
2022/07/07 01:37:10;;;;;;;5.22;3.78;;;;;;;20.86;nan;-24397.06;4949941;28;20649;-60
2022/07/07 01:39:36;;;;;;;7.05;4.00;;;;;;;21.03;nan;-24401.63;4947594;28;20314;-58
2022/07/07 01:42:02;;;;;;;5.35;3.83;;;;;;;18.86;nan;-24342.03;4948104;28;20975;-60
2022/07/07 01:44:39;;;;;;;5.57;4.05;;;;;;;20.64;nan;-24390.97;4944736;28;20178;-61
2022/07/07 01:47:05;;;;;;;5.45;4.00;;;;;;;20.71;nan;-24393.03;4951169;28;20201;-60
2022/07/07 01:49:33;;;;;;;6.53;4.35;;;;;;;20.79;nan;-24395.13;4947852;28;20698;-58
2022/07/07 01:51:59;;;;;;;5.22;3.67;;;;;;;20.58;nan;-24389.44;4948519;28;20231;-59
2022/07/07 01:54:36;;;;;;;6.60;4.57;;;;;;;20.80;nan;-24395.41;4933502;28;20182;-59
2022/07/07 01:57:04;;;;;;;5.00;4.00;;;;;;;20.69;nan;-24392.34;4943893;28;20192;-63
2022/07/07 01:59:30;;;;;;;6.03;4.05;;;;;;;20.58;nan;-24389.28;4940244;28;20276;-59
2022/07/07 02:01:57;;;;;;;6.32;3.90;;;;;;;20.57;nan;-24389.00;4947466;28;20687;-58
2022/07/07 02:04:25;;;;;;;6.47;4.50;;;;;;;20.76;nan;-24394.16;4948478;28;20178;-61
2022/07/07 02:06:51;;;;;;;5.97;4.15;;;;;;;20.84;nan;-24396.38;4951448;28;20634;-58
2022/07/07 02:09:17;;;;;;;5.82;3.80;;;;;;;20.73;nan;-24393.59;4935170;28;20297;-61
2022/07/07 02:11:44;;;;;;;5.10;3.38;;;;;;;20.72;nan;-24393.31;4944922;28;20202;-60
2022/07/07 02:14:11;;;;;;;6.25;3.92;;;;;;;20.72;nan;-24393.19;4954143;28;20185;-59
2022/07/07 02:16:37;;;;;;;5.28;3.60;;;;;;;20.88;nan;-24397.47;4945643;28;20309;-61
2022/07/07 02:19:06;;;;;;;6.25;4.25;;;;;;;20.98;nan;-24400.25;4941891;28;20236;-61
2022/07/07 02:21:34;;;;;;;4.65;3.55;;;;;;;21.12;nan;-24404.13;4955660;28;20185;-59
2022/07/07 02:24:01;;;;;;;5.43;3.55;;;;;;;21.12;nan;-24404.13;4954062;28;20859;-60
2022/07/07 02:26:29;;;;;;;5.32;3.63;;;;;;;21.10;nan;-24403.72;4948511;28;20621;-60
2022/07/07 02:28:55;;;;;;;4.80;3.50;;;;;;;21.12;nan;-24404.28;4951239;28;20575;-61
2022/07/07 02:31:20;;;;;;;7.55;3.45;;;;;;;21.11;nan;-24404.00;4950374;28;20186;-58
2022/07/07 02:33:47;;;;;;;5.57;3.92;;;;;;;21.18;nan;-24405.66;4951044;28;20700;-59
2022/07/07 02:36:14;;;;;;;5.18;3.70;;;;;;;21.21;nan;-24406.63;4954177;28;20225;-60
2022/07/07 02:38:42;;;;;;;5.13;3.58;;;;;;;21.12;nan;-24404.28;4946723;28;21047;-60
2022/07/07 02:41:09;;;;;;;5.85;3.92;;;;;;;21.07;nan;-24402.88;4952368;28;20272;-59
2022/07/07 02:43:36;;;;;;;4.63;3.75;;;;;;;21.11;nan;-24404.00;4944916;28;20181;-61
2022/07/07 02:46:03;;;;;;;9.15;3.83;;;;;;;21.13;nan;-24404.41;4945037;28;22517;-60
2022/07/07 02:48:32;;;;;;;6.18;3.90;;;;;;;21.09;nan;-24403.31;4945655;28;20205;-58
2022/07/07 02:50:59;;;;;;;5.53;3.83;;;;;;;21.19;nan;-24405.94;4951937;28;20189;-58
2022/07/07 02:53:26;;;;;;;4.63;3.40;;;;;;;20.96;nan;-24399.84;4953104;28;20177;-58
2022/07/07 02:55:52;;;;;;;5.40;3.90;;;;;;;21.34;nan;-24410.25;4952419;28;20567;-60
2022/07/07 02:58:23;;;;;;;5.13;3.78;;;;;;;21.34;nan;-24410.09;4951510;28;20731;-59
2022/07/07 03:00:51;;;;;;;4.78;3.60;;;;;;;21.37;nan;-24411.06;4953832;28;20240;-58
2022/07/07 03:03:18;;;;;;;4.90;3.60;;;;;;;21.42;nan;-24412.47;4949535;28;20204;-60
2022/07/07 03:05:45;;;;;;;4.72;3.60;;;;;;;21.49;nan;-24414.25;4941534;28;20676;-59
2022/07/07 03:08:11;;;;;;;6.93;3.83;;;;;;;21.84;nan;-24423.94;4949965;28;20213;-58
2022/07/07 03:10:44;;;;;;;4.90;3.60;;;;;;;22.36;nan;-24438.22;4954466;28;20189;-60
2022/07/07 03:13:10;;;;;;;4.70;3.50;;;;;;;22.34;nan;-24437.66;4947986;28;20196;-59
2022/07/07 03:15:35;;;;;;;4.55;3.58;;;;;;;22.81;nan;-24450.53;4952999;28;20178;-58
2022/07/07 03:18:01;;;;;;;6.47;3.83;;;;;;;23.27;nan;-24463.09;4943130;28;20178;-60
2022/07/07 03:20:26;;;;;;;4.38;3.45;;;;;;;21.75;nan;-24421.31;4946161;28;20229;-59
2022/07/07 03:22:52;;;;;;;4.75;3.38;;;;;;;23.75;nan;-24476.22;4945990;28;20221;-60
2022/07/07 03:25:17;;;;;;;5.13;3.70;;;;;;;24.02;nan;-24483.53;4940862;28;20190;-61
2022/07/07 03:27:43;;;;;;;5.05;3.45;;;;;;;24.11;nan;-24485.88;4946067;28;20209;-59
2022/07/07 03:30:09;;;;;;;5.18;3.88;;;;;;;24.59;nan;-24499.13;4950374;28;20178;-58
2022/07/07 03:32:35;;;;;;;4.43;3.25;;;;;;;25.58;nan;-24525.81;4948936;28;20193;-57
2022/07/07 03:35:01;;;;;;;5.00;3.85;;;;;;;26.06;nan;-24539.03;4945309;28;20225;-60
2022/07/07 03:37:27;;;;;;;4.38;3.03;;;;;;;26.30;nan;-24545.63;4948605;28;20181;-59
2022/07/07 03:39:52;;;;;;;4.82;3.10;;;;;;;26.27;nan;-24544.66;4949962;28;20307;-60
2022/07/07 03:42:18;;;;;;;5.10;3.60;;;;;;;26.27;nan;-24544.78;4946785;28;20544;-61
2022/07/07 03:44:43;;;;;;;4.85;3.47;;;;;;;26.30;nan;-24545.47;4949280;28;20322;-59
2022/07/07 03:47:09;;;;;;;4.95;3.13;;;;;;;27.54;nan;-24579.25;4945329;28;20722;-59
2022/07/07 03:49:35;;;;;;;4.45;3.42;;;;;;;26.45;nan;-24549.59;4947740;28;20190;-58
2022/07/07 03:52:00;;;;;;;4.50;3.30;;;;;;;27.30;nan;-24572.66;4933105;28;20329;-61
2022/07/07 03:54:26;;;;;;;4.00;3.20;;;;;;;28.14;nan;-24595.41;4946886;28;20707;-59
2022/07/07 03:56:52;;;;;;;5.10;3.35;;;;;;;27.99;nan;-24591.44;4943382;28;20188;-61
2022/07/07 03:59:17;;;;;;;4.85;3.70;;;;;;;28.17;nan;-24596.22;4946117;28;20855;-58
2022/07/07 04:01:44;;;;;;;3.70;3.13;;;;;;;28.65;nan;-24609.06;4944455;28;20189;-61
2022/07/07 04:04:11;;;;;;;4.68;3.53;;;;;;;29.24;nan;-24625.06;4947111;28;20190;-62
2022/07/07 04:06:37;;;;;;;3.58;3.13;;;;;;;29.71;nan;-24637.75;4944409;28;20186;-58
2022/07/07 04:09:03;;;;;;;4.20;3.17;;;;;;;30.49;nan;-24658.78;4947098;28;20232;-59
2022/07/07 04:11:41;;;;;;;4.53;3.35;;;;;;;31.61;nan;-24688.84;4944232;28;20196;-59
2022/07/07 04:14:06;;;;;;;4.53;3.53;;;;;;;32.39;nan;-24710.03;4943728;28;20236;-60
2022/07/07 04:16:33;;;;;;;4.40;3.33;;;;;;;32.28;nan;-24706.91;4950059;28;20165;-61
2022/07/07 04:18:58;;;;;;;4.22;3.42;;;;;;;32.38;nan;-24709.75;4946921;28;20260;-61
2022/07/07 04:21:24;;;;;;;4.85;3.42;;;;;;;32.57;nan;-24714.66;4950300;28;20603;-60
2022/07/07 04:23:49;;;;;;;4.05;3.20;;;;;;;30.95;nan;-24671.16;4950055;28;20236;-59
2022/07/07 04:26:15;;;;;;;4.10;3.00;;;;;;;30.76;nan;-24666.13;4948383;28;20190;-59
2022/07/07 04:28:40;;;;;;;3.35;2.88;;;;;;;30.85;nan;-24668.56;4950771;28;20592;-59
2022/07/07 04:31:06;;;;;;;4.60;3.53;;;;;;;30.29;nan;-24653.44;4950695;28;20184;-56
2022/07/07 04:33:31;;;;;;;5.00;3.50;;;;;;;30.77;nan;-24666.25;4952534;28;20172;-57
2022/07/07 04:35:57;;;;;;;4.65;3.08;;;;;;;30.29;nan;-24653.59;4948589;28;20617;-58
2022/07/07 04:38:22;;;;;;;4.15;3.30;;;;;;;29.58;nan;-24634.22;4950511;28;20263;-60
2022/07/07 04:40:48;;;;;;;4.22;3.15;;;;;;;30.27;nan;-24652.91;4953209;28;20298;-58
2022/07/07 04:43:13;;;;;;;4.38;3.50;;;;;;;29.03;nan;-24619.34;4950677;28;20637;-58
2022/07/07 04:45:38;;;;;;;5.03;3.50;;;;;;;29.05;nan;-24619.88;4953540;28;20182;-58
2022/07/07 04:48:04;;;;;;;3.90;3.20;;;;;;;29.03;nan;-24619.34;4947996;28;21055;-58
2022/07/07 04:50:30;;;;;;;4.25;3.33;;;;;;;28.37;nan;-24601.56;4952812;28;20278;-60
2022/07/07 04:52:55;;;;;;;4.63;3.38;;;;;;;29.42;nan;-24630.13;4949790;28;20189;-58
2022/07/07 04:55:21;;;;;;;3.95;3.17;;;;;;;29.63;nan;-24635.72;4946054;28;20177;-59
2022/07/07 04:57:47;;;;;;;4.60;3.28;;;;;;;27.73;nan;-24584.31;4948436;28;20194;-58
2022/07/07 05:00:13;;;;;;;3.15;2.70;;;;;;;27.76;nan;-24585.00;4947748;28;20350;-59
2022/07/07 05:02:38;;;;;;;4.85;3.17;;;;;;;27.85;nan;-24587.44;4949437;28;20182;-60
2022/07/07 05:05:06;;;;;;;3.92;3.10;;;;;;;27.51;nan;-24578.41;4950846;28;20174;-59
2022/07/07 05:07:32;;;;;;;3.58;2.95;;;;;;;27.32;nan;-24573.06;4943348;28;21592;-58
2022/07/07 05:09:58;;;;;;;4.63;3.20;;;;;;;27.82;nan;-24586.63;4944762;28;20324;-58
2022/07/07 05:12:23;;;;;;;4.68;3.38;;;;;;;27.68;nan;-24583.06;4948351;28;20190;-61
2022/07/07 05:14:49;;;;;;;3.55;2.78;;;;;;;27.50;nan;-24578.00;4948984;28;20657;-61
2022/07/07 05:17:14;;;;;;;4.10;3.08;;;;;;;27.18;nan;-24569.38;4943076;28;20190;-60
2022/07/07 05:19:40;;;;;;;3.40;2.88;;;;;;;27.04;nan;-24565.66;4949150;28;20611;-59
2022/07/07 05:22:05;;;;;;;4.25;2.63;;;;;;;27.13;nan;-24568.13;4948555;28;20186;-60
2022/07/07 05:24:31;;;;;;;5.20;3.35;;;;;;;27.79;nan;-24585.81;4945843;28;20634;-58
2022/07/07 05:26:56;;;;;;;4.47;2.80;;;;;;;27.50;nan;-24578.16;4941587;28;20789;-59
2022/07/07 05:29:21;;;;;;;3.30;2.70;;;;;;;27.56;nan;-24579.66;4946326;28;20228;-60
2022/07/07 05:31:47;;;;;;;4.07;2.95;;;;;;;27.86;nan;-24587.88;4951353;28;20673;-58
2022/07/07 05:34:12;;;;;;;4.75;3.20;;;;;;;27.48;nan;-24577.44;4942162;28;20934;-61
2022/07/07 05:36:38;;;;;;;3.67;2.95;;;;;;;28.03;nan;-24592.53;4939082;28;20197;-60
2022/07/07 05:39:03;;;;;;;4.05;2.97;;;;;;;28.41;nan;-24602.78;4937636;28;20192;-61
2022/07/07 05:41:29;;;;;;;3.88;2.72;;;;;;;25.47;nan;-24522.94;4938386;28;20279;-61
2022/07/07 05:43:55;;;;;;;3.53;2.78;;;;;;;28.09;nan;-24594.03;4945850;28;20278;-59
2022/07/07 05:46:20;;;;;;;3.45;2.72;;;;;;;28.13;nan;-24595.00;4941995;28;20190;-59
2022/07/07 05:48:46;;;;;;;4.15;2.42;;;;;;;27.19;nan;-24569.63;4944766;28;20620;-59
2022/07/07 05:51:11;;;;;;;4.22;3.03;;;;;;;26.62;nan;-24554.13;4940793;28;20655;-59
2022/07/07 05:53:37;;;;;;;6.15;2.85;;;;;;;26.16;nan;-24541.63;4946193;28;20289;-59
2022/07/07 05:56:03;;;;;;;3.85;2.88;;;;;;;25.83;nan;-24532.69;4951144;28;20189;-58
2022/07/07 05:58:28;;;;;;;3.38;2.63;;;;;;;26.10;nan;-24540.13;4924177;28;20201;-59
2022/07/07 06:00:54;;;;;;;3.55;2.70;;;;;;;26.00;nan;-24537.38;4931624;28;20186;-61
2022/07/07 06:03:19;;;;;;;4.15;3.00;;;;;;;25.75;nan;-24530.50;4948851;28;20293;-61
2022/07/07 06:05:45;;;;;;;3.40;2.60;;;;;;;25.76;nan;-24530.78;4949044;28;20670;-60
2022/07/07 06:08:11;;;;;;;3.55;2.50;;;;;;;25.74;nan;-24530.38;4948631;28;20221;-60
2022/07/07 06:10:37;;;;;;;2.95;2.47;;;;;;;25.92;nan;-24535.19;4946974;28;20178;-61
2022/07/07 06:13:03;;;;;;;3.20;2.35;;;;;;;25.68;nan;-24528.56;4945051;28;20186;-60
2022/07/07 06:15:33;;;;;;;3.45;2.40;;;;;;;25.82;nan;-24532.56;4942782;28;20275;-59
2022/07/07 06:18:02;;;;;;;3.50;2.58;;;;;;;26.01;nan;-24537.50;4945431;28;20178;-58
2022/07/07 06:20:28;;;;;;;2.47;2.20;;;;;;;25.78;nan;-24531.47;4942724;28;20280;-60
2022/07/07 06:22:54;;;;;;;2.42;2.20;;;;;;;25.90;nan;-24534.75;4945651;28;20514;-61
2022/07/07 06:25:20;;;;;;;3.08;2.33;;;;;;;25.82;nan;-24532.44;4945955;28;20272;-59
2022/07/07 06:27:46;;;;;;;3.83;2.65;;;;;;;25.89;nan;-24534.50;4937511;28;20249;-61
2022/07/07 06:30:12;;;;;;;3.53;2.53;;;;;;;26.13;nan;-24540.94;4938782;28;20189;-60
2022/07/07 06:32:37;;;;;;;2.92;2.40;;;;;;;26.08;nan;-24539.56;4938145;28;20312;-62
2022/07/07 06:35:04;;;;;;;3.05;2.50;;;;;;;26.09;nan;-24539.84;4933752;28;20190;-58
2022/07/07 06:37:30;;;;;;;2.78;2.30;;;;;;;26.34;nan;-24546.59;4928336;28;20216;-59
2022/07/07 06:39:55;;;;;;;4.00;2.50;;;;;;;26.05;nan;-24538.59;4932177;28;20189;-61
2022/07/07 06:42:21;;;;;;;2.85;2.25;;;;;;;26.27;nan;-24544.66;4928540;28;20182;-60
2022/07/07 06:44:46;;;;;;;2.63;2.03;;;;;;;26.46;nan;-24549.88;4926102;28;20748;-59
2022/07/07 06:47:11;;;;;;;3.05;2.20;;;;;;;26.20;nan;-24542.88;4942204;28;20733;-60
2022/07/07 06:49:37;;;;;;;2.45;1.88;;;;;;;26.50;nan;-24550.84;4928431;28;20193;-61
2022/07/07 06:52:03;;;;;;;2.53;2.10;;;;;;;26.35;nan;-24546.84;4928558;28;20605;-60
2022/07/07 06:54:28;;;;;;;2.97;2.20;;;;;;;26.57;nan;-24552.91;4931494;28;20268;-59
2022/07/07 06:56:54;;;;;;;3.83;2.50;;;;;;;26.80;nan;-24559.22;4936114;28;22473;-61
2022/07/07 06:59:19;;;;;;;3.28;2.50;;;;;;;26.78;nan;-24558.66;4925907;28;21298;-60
2022/07/07 07:01:44;;;;;;;2.97;2.17;;;;;;;26.51;nan;-24551.25;4928178;28;20192;-60
2022/07/07 07:04:13;;;;;;;2.90;2.30;;;;;;;26.40;nan;-24548.09;4929459;28;20182;-61
2022/07/07 07:06:40;;;;;;;3.28;2.50;;;;;;;26.86;nan;-24560.59;4932830;28;20249;-60
2022/07/07 07:09:06;;;;;;;3.53;2.25;;;;;;;26.79;nan;-24558.78;4927625;28;20659;-59
2022/07/07 07:11:31;;;;;;;2.60;2.13;;;;;;;27.10;nan;-24567.16;4929390;28;20208;-60
2022/07/07 07:13:58;;;;;;;4.53;2.63;;;;;;;27.18;nan;-24569.50;4929018;28;20641;-59
2022/07/07 07:16:24;;;;;;;4.68;2.17;;;;;;;27.45;nan;-24576.63;4927096;28;20184;-61
2022/07/07 07:18:50;;;;;;;2.90;2.35;;;;;;;27.39;nan;-24574.97;4923783;28;20190;-61
2022/07/07 07:21:15;;;;;;;3.08;2.30;;;;;;;27.41;nan;-24575.66;4930381;28;20198;-61
2022/07/07 07:23:41;;;;;;;2.90;2.08;;;;;;;27.28;nan;-24572.09;4927779;28;20213;-62
2022/07/07 07:26:08;;;;;;;2.65;2.10;;;;;;;27.27;nan;-24571.84;4927207;28;20236;-60
2022/07/07 07:28:34;;;;;;;3.20;2.40;;;;;;;27.25;nan;-24571.41;4928944;28;20764;-61
2022/07/07 07:31:00;;;;;;;2.90;2.30;;;;;;;;;;4926640;28;20185;-59
2022/07/07 07:33:27;;;;;;;4.05;2.47;;;;;;;27.51;nan;-24578.28;4926027;28;20189;-59
2022/07/07 07:35:52;;;;;;;3.05;2.30;;;;;;;27.53;nan;-24578.81;4929306;28;20578;-61
2022/07/07 07:38:18;;;;;;;3.15;2.10;;;;;;;27.58;nan;-24580.19;4926479;28;20658;-62
2022/07/07 07:40:44;;;;;;;6.20;2.63;;;;;;;27.53;nan;-24578.81;4937276;28;20189;-62
2022/07/07 07:43:09;;;;;;;2.58;1.98;;;;;;;27.67;nan;-24582.81;4927446;28;20996;-60
2022/07/07 07:45:35;;;;;;;3.20;2.58;;;;;;;27.70;nan;-24583.34;4926964;28;20198;-61
2022/07/07 07:48:04;;;;;;;2.85;2.35;;;;;;;27.63;nan;-24581.56;4936147;28;20723;-59
2022/07/07 07:50:30;;;;;;;3.13;2.30;;;;;;;27.80;nan;-24586.22;4945762;28;20189;-60
2022/07/07 07:52:56;;;;;;;3.13;2.50;;;;;;;27.56;nan;-24579.66;4945487;28;20193;-62
2022/07/07 07:55:22;;;;;;;3.63;2.40;;;;;;;27.84;nan;-24587.31;4945325;28;20202;-60
2022/07/07 07:57:49;;;;;;;2.70;2.22;;;;;;;27.56;nan;-24579.66;4931554;28;20200;-59
2022/07/07 08:00:17;;;;;;;3.05;2.72;;;;;;;27.61;nan;-24581.00;4929620;28;20185;-60
2022/07/07 08:02:43;;;;;;;2.78;2.45;;;;;;;27.71;nan;-24583.63;4926817;28;20198;-59
2022/07/07 08:05:10;;;;;;;2.92;2.40;;;;;;;27.89;nan;-24588.69;4930099;28;20182;-59
2022/07/07 08:07:36;;;;;;;2.75;2.40;;;;;;;28.01;nan;-24591.97;4939016;28;20210;-59
2022/07/07 08:10:02;;;;;;;3.60;2.65;;;;;;;28.01;nan;-24591.84;4939810;28;20867;-60
2022/07/07 08:12:28;;;;;;;2.95;2.47;;;;;;;28.09;nan;-24594.03;4942759;28;21311;-61
2022/07/07 08:14:53;;;;;;;3.10;2.30;;;;;;;27.97;nan;-24590.75;4937063;28;20194;-60
2022/07/07 08:17:19;;;;;;;3.10;2.65;;;;;;;28.00;nan;-24591.69;4940249;28;20941;-60
2022/07/07 08:19:44;;;;;;;6.18;2.60;;;;;;;27.79;nan;-24585.81;4938295;28;20216;-59
2022/07/07 08:22:10;;;;;;;3.53;2.75;;;;;;;28.30;nan;-24599.66;4943548;28;20195;-58
2022/07/07 08:24:36;;;;;;;3.35;2.40;;;;;;;28.59;nan;-24607.44;4945987;28;20614;-58
2022/07/07 08:27:03;;;;;;;2.78;2.38;;;;;;;28.27;nan;-24598.81;4940463;28;20190;-61
2022/07/07 08:29:28;;;;;;;3.25;2.70;;;;;;;28.37;nan;-24601.56;4942119;28;20660;-58
2022/07/07 08:31:55;;;;;;;4.15;2.80;;;;;;;28.78;nan;-24612.63;4937176;28;20796;-60
2022/07/07 08:34:20;;;;;;;7.05;2.75;;;;;;;28.77;nan;-24612.38;4923462;28;20205;-58
2022/07/07 08:36:46;;;;;;;3.58;2.30;;;;;;;28.76;nan;-24612.09;4926054;28;20664;-61
2022/07/07 08:39:13;;;;;;;3.40;2.50;;;;;;;28.74;nan;-24611.69;4924705;28;20183;-60
2022/07/07 08:41:40;;;;;;;3.45;2.53;;;;;;;28.69;nan;-24610.16;4927378;28;20190;-60
2022/07/07 08:44:05;;;;;;;3.05;2.53;;;;;;;29.05;nan;-24619.88;4928901;28;20274;-61
2022/07/07 08:46:31;;;;;;;3.25;2.15;;;;;;;28.79;nan;-24613.03;4924734;28;20608;-62
2022/07/07 08:48:56;;;;;;;3.22;2.53;;;;;;;28.17;nan;-24596.22;4930237;28;20209;-59
2022/07/07 08:51:22;;;;;;;3.25;2.50;;;;;;;29.05;nan;-24619.88;4928671;28;20181;-59
2022/07/07 08:53:48;;;;;;;3.10;2.50;;;;;;;29.05;nan;-24619.88;4928189;28;20280;-58
2022/07/07 08:56:18;;;;;;;3.42;2.55;;;;;;;28.98;nan;-24618.09;4939741;28;21661;-60
2022/07/07 08:58:45;;;;;;;3.10;2.50;;;;;;;29.28;nan;-24626.28;4939854;28;20188;-59
2022/07/07 09:01:11;;;;;;;3.67;2.60;;;;;;;28.95;nan;-24617.28;4940748;28;20193;-60
2022/07/07 09:03:36;;;;;;;3.97;2.67;;;;;;;29.38;nan;-24629.03;4947222;28;20240;-62
2022/07/07 09:06:02;;;;;;;2.55;2.10;;;;;;;29.42;nan;-24630.00;4944924;28;20180;-60
2022/07/07 09:08:31;;;;;;;3.90;2.72;;;;;;;29.47;nan;-24631.34;4939512;28;20205;-60
2022/07/07 09:10:57;;;;;;;3.20;2.65;;;;;;;29.50;nan;-24632.19;4945013;28;20188;-58
2022/07/07 09:13:32;;;;;;;4.07;2.75;;;;;;;29.42;nan;-24630.13;4951773;28;20185;-61
2022/07/07 09:16:01;;;;;;;3.65;2.70;;;;;;;29.53;nan;-24632.84;4955853;28;20176;-59
2022/07/07 09:18:38;;;;;;;4.68;2.85;;;;;;;29.47;nan;-24631.34;4952412;28;22108;-58
2022/07/07 09:21:33;;;;;;;3.30;2.70;;;;;;;30.01;nan;-24645.81;4911886;29;20198;-60
2022/07/07 09:24:01;;;;;;;6.30;2.65;;;;;;;29.65;nan;-24636.13;4899904;29;20195;-61
2022/07/07 09:26:40;;;;;;;3.17;2.60;;;;;;;29.95;nan;-24644.19;4903915;29;20200;-60
2022/07/07 09:29:07;;;;;;;3.25;2.40;;;;;;;26.80;nan;-24559.22;4907440;29;20285;-61
2022/07/07 09:32:04;;;;;;;3.97;2.85;;;;;;;30.17;nan;-24650.31;4901873;29;20186;-61
2022/07/07 09:34:33;;;;;;;4.25;2.95;;;;;;;30.19;nan;-24650.72;4892889;29;20232;-59
2022/07/07 09:39:46;;;;;;;3.80;2.80;;;;;;;30.49;nan;-24658.91;4918871;29;20318;-59
2022/07/07 09:42:34;;;;;;;3.85;2.67;;;;;;;30.18;nan;-24650.44;4920611;29;20220;-62
2022/07/07 09:45:03;;;;;;;3.58;2.55;;;;;;;30.42;nan;-24657.00;4910965;29;20202;-60
2022/07/07 09:47:30;;;;;;;3.20;2.58;;;;;;;29.92;nan;-24643.50;4913150;29;20279;-60
2022/07/07 09:50:15;;;;;;;3.58;2.72;;;;;;;30.58;nan;-24661.22;4906170;29;20182;-59
2022/07/07 09:52:44;;;;;;;3.97;2.75;;;;;;;30.43;nan;-24657.13;4916435;29;20201;-59
2022/07/07 09:55:11;;;;;;;3.28;2.70;;;;;;;30.62;nan;-24662.31;4914676;29;20270;-60
2022/07/07 09:57:39;;;;;;;4.05;2.83;;;;;;;30.21;nan;-24651.28;4909008;29;20685;-60
2022/07/07 10:00:06;;;;;;;3.22;2.38;;;;;;;30.52;nan;-24659.72;4903262;29;20189;-59
2022/07/07 10:02:32;;;;;;;3.10;2.47;;;;;;;30.85;nan;-24668.56;4906969;29;20191;-59
2022/07/07 10:05:00;;;;;;;3.58;2.67;;;;;;;30.73;nan;-24665.16;4906760;29;20651;-60
2022/07/07 10:07:28;;;;;;;3.42;2.75;;;;;;;30.46;nan;-24658.09;4905470;29;20239;-59
2022/07/07 10:09:55;;;;;;;3.55;2.80;;;;;;;31.03;nan;-24673.34;4897487;29;20191;-60
2022/07/07 10:12:26;;;;;;;2.97;2.42;;;;;;;24.86;nan;-24506.41;4902120;29;20719;-61
2022/07/07 10:14:58;;;;;;;3.50;2.60;;;;;;;30.64;nan;-24662.84;4907876;29;20186;-58
2022/07/07 10:17:24;;;;;;;3.97;2.70;;;;;;;30.36;nan;-24655.22;4909518;29;20937;-60
2022/07/07 10:19:50;;;;;;;4.78;2.63;;;;;;;30.22;nan;-24651.69;4920501;28;20341;-58
2022/07/07 10:22:16;;;;;;;4.85;2.95;;;;;;;30.45;nan;-24657.81;4932293;28;20194;-58
2022/07/07 10:24:42;;;;;;;3.92;2.90;;;;;;;30.56;nan;-24660.69;4933691;28;20311;-59
2022/07/07 10:27:14;;;;;;;2.70;2.28;;;;;;;30.60;nan;-24661.91;4929273;28;20185;-62
2022/07/07 10:29:39;;;;;;;3.53;2.50;;;;;;;31.02;nan;-24673.06;4930918;28;20188;-60
2022/07/07 10:32:05;;;;;;;5.45;3.03;;;;;;;;;;4936453;28;20193;-60
2022/07/07 10:34:33;;;;;;;3.20;2.65;;;;;;;30.87;nan;-24669.13;4932365;28;20196;-60
2022/07/07 10:37:01;;;;;;;3.63;2.60;;;;;;;31.10;nan;-24675.25;4930372;28;20616;-61
2022/07/07 10:39:30;;;;;;;3.40;2.50;;;;;;;31.23;nan;-24678.66;4926701;28;20700;-61
2022/07/07 10:42:04;;;;;;;3.45;2.40;;;;;;;31.28;nan;-24680.13;4929040;28;20872;-60
2022/07/07 10:44:32;;;;;;;3.42;2.72;;;;;;;31.16;nan;-24676.75;4930953;28;20183;-60
2022/07/07 10:46:59;;;;;;;3.83;2.50;;;;;;;30.97;nan;-24671.69;4929492;28;20184;-61
2022/07/07 10:49:55;;;;;;;4.00;2.70;;;;;;;31.24;nan;-24678.91;4926382;28;20255;-61
2022/07/07 10:52:26;;;;;;;3.42;2.63;;;;;;;31.48;nan;-24685.59;4929112;28;20232;-61
2022/07/07 10:55:02;;;;;;;4.45;3.00;;;;;;;31.50;nan;-24685.97;4934439;28;20181;-58
2022/07/07 10:57:48;;;;;;;3.30;2.53;;;;;;;31.92;nan;-24697.28;4943878;28;20192;-58
2022/07/07 11:00:26;;;;;;;3.28;2.47;;;;;;;31.61;nan;-24688.84;4948569;28;20189;-59
2022/07/07 11:03:08;;;;;;;3.13;2.60;;;;;;;31.22;nan;-24678.50;4945561;28;20181;-60
2022/07/07 11:05:35;;;;;;;3.28;2.40;;;;;;;31.62;nan;-24689.13;4950167;28;20604;-60
2022/07/07 11:08:03;;;;;;;3.05;2.38;;;;;;;31.73;nan;-24692.25;4948553;28;20201;-60
2022/07/07 11:10:44;;;;;;;3.72;2.53;;;;;;;31.94;nan;-24697.81;4945863;28;20173;-61
2022/07/07 11:13:33;;;;;;;3.33;2.60;;;;;;;31.84;nan;-24695.22;4948965;28;20234;-62
2022/07/07 11:16:10;;;;;;;4.05;2.67;;;;;;;31.76;nan;-24692.94;4950502;28;20188;-58
2022/07/07 11:18:36;;;;;;;2.90;2.50;;;;;;;31.45;nan;-24684.75;4953168;28;20189;-62
2022/07/07 11:21:04;;;;;;;5.40;2.72;;;;;;;31.69;nan;-24691.16;4953053;28;20563;-61
2022/07/07 11:23:54;;;;;;;3.50;2.60;;;;;;;31.95;nan;-24698.09;4951269;28;20185;-61
2022/07/07 11:26:25;;;;;;;3.17;2.45;;;;;;;32.28;nan;-24707.03;4942742;28;20652;-59
2022/07/07 11:28:52;;;;;;;3.83;2.58;;;;;;;32.10;nan;-24702.03;4950581;28;20221;-59
2022/07/07 11:31:17;;;;;;;3.30;2.40;;;;;;;31.87;nan;-24696.03;4950356;28;20209;-60
2022/07/07 11:33:52;;;;;;;2.78;2.28;;;;;;;32.32;nan;-24708.13;4953698;28;20288;-59
2022/07/07 11:36:21;;;;;;;4.78;2.60;;;;;;;31.95;nan;-24698.22;4948844;28;20199;-61
2022/07/07 11:38:51;;;;;;;2.80;2.30;;;;;;;31.74;nan;-24692.50;4953296;28;20865;-61
2022/07/07 11:41:16;;;;;;;3.80;2.78;;;;;;;31.86;nan;-24695.78;4947445;28;20190;-59
2022/07/07 11:43:42;;;;;;;4.22;2.70;;;;;;;32.27;nan;-24706.66;4949062;28;20626;-60
2022/07/07 11:46:07;;;;;;;3.92;2.45;;;;;;;32.37;nan;-24709.50;4947426;28;20177;-59
2022/07/07 11:48:41;;;;;;;3.42;2.55;;;;;;;32.20;nan;-24704.88;4948800;28;20851;-61